»·PEaware :: QXE2514 KBOI-KPDX

QXE2514 :: KBOI-KPDX

FLIGHT INFORMATION

Flight Status: Arrived
Operator:
Horizon Air
More flights by this operator :: More flights under this callsign
Pilot: Adlai G. (28854)
Aircraft: DEHAVILLAND DASH 8 400
(DH8D)
More flights by this aircraft type
Origin: KBOI Boise Air Terminal/Gowen
United States
Destination: KPDX Portland Intl
United States
More flights between these airports :: More routes between these airports
Route: SAILL BUEEL IMB RABBI HHOOD4
File this flight plan on PilotEdge
Remarks:
Altitude:
(Current/Filed)
24,000ft
Speed:
(Current/Filed)
350kts
Departed: 13-Apr-20 01:56 PM
Arrived: 13-Apr-20 03:01 PM
Distance/Time
Traveled:
298nm/1:04
Distance/Time
To Go:
Arrived

Flight Plot

Page will automatically refresh every two minutes.


Map Options




Map Legend


Flown Route
Filed Route
Departure Airport
Arrival Airport
Navaid (VOR, NDB)
Fix

Horizontal Profiles

Position Reports

Time Latitude Longitude Heading Altitude Ground
Speed
13-Apr-20 13:13 43.567804 -116.219517 225 2878ft 0kts
13-Apr-20 13:14 43.567804 -116.219517 225 2878ft 0kts
13-Apr-20 13:15 43.567804 -116.219517 225 2878ft 0kts
13-Apr-20 13:16 43.567804 -116.219517 225 2878ft 0kts
13-Apr-20 13:17 43.567804 -116.219517 225 2878ft 0kts
13-Apr-20 13:18 43.567804 -116.219517 225 2878ft 0kts
13-Apr-20 13:19 43.567804 -116.219517 225 2878ft 0kts
13-Apr-20 13:20 43.567804 -116.219517 225 2878ft 0kts
13-Apr-20 13:21 43.567804 -116.219517 225 2878ft 0kts
13-Apr-20 13:22 43.567804 -116.219517 225 2878ft 0kts
13-Apr-20 13:23 43.567804 -116.219517 225 2878ft 0kts
13-Apr-20 13:24 43.567804 -116.219517 225 2878ft 0kts
13-Apr-20 13:25 43.567804 -116.219517 225 2878ft 0kts
13-Apr-20 13:26 43.567804 -116.219517 225 2878ft 0kts
13-Apr-20 13:26 43.567804 -116.219517 225 2878ft 0kts
13-Apr-20 13:28 43.567804 -116.219517 225 2878ft 0kts
13-Apr-20 13:29 43.567804 -116.219517 225 2878ft 0kts
13-Apr-20 13:29 43.567804 -116.219517 225 2878ft 0kts
13-Apr-20 13:30 43.567804 -116.219517 225 2878ft 0kts
13-Apr-20 13:32 43.567804 -116.219517 225 2878ft 0kts
13-Apr-20 13:33 43.567804 -116.219517 225 2878ft 0kts
13-Apr-20 13:33 43.567804 -116.219517 225 2878ft 0kts
13-Apr-20 13:34 43.567804 -116.219517 225 2878ft 0kts
13-Apr-20 13:36 43.567804 -116.219517 225 2878ft 0kts
13-Apr-20 13:36 43.567804 -116.219517 225 2878ft 0kts
13-Apr-20 13:37 43.567804 -116.219517 225 2878ft 0kts
13-Apr-20 13:38 43.567804 -116.219517 225 2878ft 0kts
13-Apr-20 13:39 43.567804 -116.219517 225 2878ft 0kts
13-Apr-20 13:40 43.567804 -116.219517 225 2878ft 0kts
13-Apr-20 13:41 43.567804 -116.219517 225 2878ft 0kts
13-Apr-20 13:42 43.567804 -116.219517 225 2878ft 0kts
13-Apr-20 13:43 43.567804 -116.219517 225 2878ft 0kts
13-Apr-20 13:44 43.568034 -116.219319 175 2878ft 3kts
13-Apr-20 13:45 43.568204 -116.219623 105 2878ft 0kts
13-Apr-20 13:46 43.568204 -116.219623 105 2878ft 0kts
13-Apr-20 13:47 43.568204 -116.219628 105 2878ft 0kts
13-Apr-20 13:48 43.567802 -116.217806 111 2878ft 1kts
13-Apr-20 13:49 43.566746 -116.216266 180 2878ft 4kts
13-Apr-20 13:50 43.566164 -116.216285 182 2878ft 0kts
13-Apr-20 13:51 43.566118 -116.216288 182 2878ft 0kts
13-Apr-20 13:52 43.564011 -116.214910 113 2878ft 17kts
13-Apr-20 13:53 43.561157 -116.206515 114 2878ft 28kts
13-Apr-20 13:54 43.558820 -116.203108 213 2878ft 7kts
13-Apr-20 13:55 43.565741 -116.223889 296 3289ft 139kts
13-Apr-20 13:56 43.579929 -116.288546 291 5837ft 200kts
13-Apr-20 13:57 43.600694 -116.363920 291 8476ft 225kts
13-Apr-20 13:58 43.621934 -116.451849 285 10286ft 257kts
13-Apr-20 13:59 43.638009 -116.552191 285 11910ft 268kts
13-Apr-20 14:00 43.653777 -116.653060 285 13619ft 272kts
13-Apr-20 14:01 43.669955 -116.757845 285 14737ft 288kts
13-Apr-20 14:02 43.686830 -116.867938 286 15742ft 296kts
13-Apr-20 14:03 43.704656 -116.982898 286 16128ft 314kts
13-Apr-20 14:04 43.721674 -117.094426 288 17866ft 286kts
13-Apr-20 14:05 43.751906 -117.194383 299 18872ft 283kts
13-Apr-20 14:06 43.783432 -117.294474 299 19872ft 284kts
13-Apr-20 14:07 43.814853 -117.394508 299 20872ft 282kts
13-Apr-20 14:08 43.845816 -117.493876 299 21872ft 279kts
13-Apr-20 14:09 43.876370 -117.591424 300 22868ft 274kts
13-Apr-20 14:10 43.911107 -117.685258 304 23571ft 276kts
13-Apr-20 14:11 43.946839 -117.779259 303 24270ft 279kts
13-Apr-20 14:12 43.984618 -117.878908 303 24354ft 303kts
13-Apr-20 14:13 44.024384 -117.985573 303 24354ft 318kts
13-Apr-20 14:14 44.065616 -118.096244 302 24354ft 326kts
13-Apr-20 14:15 44.107312 -118.208937 302 24353ft 330kts
13-Apr-20 14:16 44.149367 -118.322917 302 24353ft 332kts
13-Apr-20 14:17 44.191359 -118.436989 302 24354ft 333kts
13-Apr-20 14:18 44.233420 -118.551918 302 24352ft 332kts
13-Apr-20 14:19 44.275167 -118.666337 302 24355ft 329kts
13-Apr-20 14:20 44.316280 -118.779601 302 24356ft 328kts
13-Apr-20 14:21 44.357220 -118.892963 302 24357ft 327kts
13-Apr-20 14:22 44.398239 -119.006474 302 24357ft 327kts
13-Apr-20 14:23 44.438852 -119.119961 302 24358ft 327kts
13-Apr-20 14:24 44.479540 -119.233672 302 24358ft 327kts
13-Apr-20 14:25 44.519981 -119.347537 302 24364ft 327kts
13-Apr-20 14:26 44.560487 -119.461754 302 24365ft 328kts
13-Apr-20 14:27 44.600929 -119.576392 302 24366ft 328kts
13-Apr-20 14:28 44.641290 -119.691346 302 24368ft 328kts
13-Apr-20 14:29 44.690663 -119.796912 310 24374ft 323kts
13-Apr-20 14:30 44.742095 -119.900266 310 24376ft 324kts
13-Apr-20 14:31 44.793349 -120.004240 310 24373ft 324kts
13-Apr-20 14:32 44.844308 -120.108872 310 24407ft 323kts
13-Apr-20 14:33 44.895157 -120.212397 310 24410ft 322kts
13-Apr-20 14:34 44.945953 -120.316515 310 24417ft 322kts
13-Apr-20 14:35 44.996643 -120.420528 310 24414ft 322kts
13-Apr-20 14:36 45.046962 -120.525281 311 24425ft 322kts
13-Apr-20 14:37 45.097496 -120.629682 311 24039ft 320kts
13-Apr-20 14:38 45.147555 -120.733669 310 23541ft 320kts
13-Apr-20 14:39 45.197230 -120.837581 310 23040ft 316kts
13-Apr-20 14:40 45.246962 -120.941426 310 21507ft 324kts
13-Apr-20 14:41 45.297609 -121.048076 309 19676ft 328kts
13-Apr-20 14:42 45.348288 -121.155325 309 17514ft 323kts
13-Apr-20 14:43 45.397060 -121.259036 309 15682ft 309kts
13-Apr-20 14:44 45.444755 -121.360366 309 13961ft 309kts
13-Apr-20 14:45 45.482518 -121.471078 290 12263ft 318kts
13-Apr-20 14:46 45.504142 -121.585191 289 10779ft 280kts
13-Apr-20 14:47 45.524988 -121.690628 288 9391ft 273kts
13-Apr-20 14:48 45.532934 -121.793512 275 8635ft 253kts
13-Apr-20 14:49 45.535910 -121.890996 275 7938ft 248kts
13-Apr-20 14:50 45.539340 -121.986691 277 7323ft 221kts
13-Apr-20 14:51 45.536666 -122.074976 256 6180ft 224kts
13-Apr-20 14:52 45.518374 -122.160711 255 6078ft 224kts
13-Apr-20 14:53 45.500209 -122.244753 256 5216ft 216kts
13-Apr-20 14:54 45.491338 -122.325147 286 3899ft 198kts
13-Apr-20 14:55 45.509639 -122.395178 295 2920ft 172kts
13-Apr-20 14:56 45.529884 -122.452068 298 2111ft 144kts
13-Apr-20 14:57 45.545828 -122.493929 298 1464ft 117kts
13-Apr-20 14:58 45.560464 -122.532563 299 835ft 110kts
13-Apr-20 14:59 45.575349 -122.570853 297 272ft 109kts
13-Apr-20 15:00 45.586020 -122.597932 318 37ft 13kts
13-Apr-20 15:01 45.587891 -122.597035 322 37ft 3kts
13-Apr-20 15:02 45.590241 -122.601641 28 37ft 13kts
13-Apr-20 15:03 45.590533 -122.596929 166 37ft 8kts
13-Apr-20 15:04 45.590016 -122.597234 208 37ft 0kts
13-Apr-20 15:05 45.590016 -122.597234 208 37ft 0kts
13-Apr-20 15:06 45.590016 -122.597234 208 37ft 0kts
13-Apr-20 15:07 45.590016 -122.597234 208 37ft 0kts
13-Apr-20 15:08 45.590016 -122.597234 208 37ft 0kts
13-Apr-20 15:09 45.590016 -122.597234 208 37ft 0kts
13-Apr-20 15:10 45.590016 -122.597234 208 37ft 0kts
13-Apr-20 15:11 45.590016 -122.597234 208 37ft 0kts
13-Apr-20 15:12 45.590016 -122.597234 208 37ft 0kts
13-Apr-20 15:13 45.590016 -122.597234 208 37ft 0kts

Navigation Log

Ident Type
Flight plan parsing failed, navigation log unavailable